createdAt,value
2023-05-02T00:00:05.019Z,4.30
2023-05-02T00:02:32.636Z,3.63
2023-05-02T00:05:00.396Z,4.03
2023-05-02T00:07:29.238Z,3.67
2023-05-02T00:09:56.804Z,3.60
2023-05-02T00:12:24.251Z,4.50
2023-05-02T00:14:51.798Z,4.07
2023-05-02T00:17:19.919Z,3.72
2023-05-02T00:19:47.787Z,3.50
2023-05-02T00:22:15.286Z,3.72
2023-05-02T00:24:44.114Z,4.20
2023-05-02T00:27:11.538Z,3.90
2023-05-02T00:29:39.032Z,3.90
2023-05-02T00:32:07.039Z,4.00
2023-05-02T00:34:34.697Z,3.95
2023-05-02T00:37:02.142Z,3.75
2023-05-02T00:39:29.721Z,3.90
2023-05-02T00:42:01.846Z,3.75
2023-05-02T00:44:29.725Z,3.58
2023-05-02T00:46:57.804Z,3.97
2023-05-02T00:49:25.673Z,4.15
2023-05-02T00:51:54.377Z,4.60
2023-05-02T00:54:21.996Z,3.65
2023-05-02T00:56:49.465Z,3.83
2023-05-02T00:59:19.134Z,3.80
2023-05-02T01:02:01.536Z,3.70
2023-05-02T01:04:38.684Z,3.80
2023-05-02T01:07:27.581Z,3.80
2023-05-02T01:10:09.356Z,3.72
2023-05-02T01:12:42.834Z,4.07
2023-05-02T01:15:17.041Z,3.67
2023-05-02T01:17:46.668Z,4.28
2023-05-02T01:20:17.331Z,3.88
2023-05-02T01:22:45.628Z,4.00
2023-05-02T01:25:23.561Z,4.10
2023-05-02T01:27:58.791Z,3.95
2023-05-02T01:30:30.779Z,3.95
2023-05-02T01:33:00.582Z,3.67
2023-05-02T01:35:29.015Z,3.80
2023-05-02T01:37:58.988Z,3.42
2023-05-02T01:40:27.089Z,3.22
2023-05-02T01:42:56.058Z,3.55
2023-05-02T01:45:24.885Z,3.53
2023-05-02T01:47:55.083Z,3.33
2023-05-02T01:50:26.794Z,3.63
2023-05-02T01:52:56.065Z,3.75
2023-05-02T01:55:26.707Z,3.28
2023-05-02T01:57:57.653Z,3.20
2023-05-02T02:00:26.551Z,3.97
2023-05-02T02:02:57.982Z,3.67
2023-05-02T02:05:26.475Z,3.80
2023-05-02T02:07:53.967Z,3.08
2023-05-02T02:10:22.307Z,3.47
2023-05-02T02:12:54.044Z,3.50
2023-05-02T02:15:28.222Z,3.50
2023-05-02T02:18:01.196Z,3.53
2023-05-02T02:20:30.193Z,3.63
2023-05-02T02:22:59.092Z,3.83
2023-05-02T02:25:27.915Z,3.30
2023-05-02T02:27:55.612Z,3.28
2023-05-02T02:30:23.181Z,3.50
2023-05-02T02:32:50.969Z,4.15
2023-05-02T02:35:20.377Z,4.30
2023-05-02T02:37:52.784Z,3.95
2023-05-02T02:40:26.001Z,3.90
2023-05-02T02:43:00.966Z,4.05
2023-05-02T02:45:36.525Z,3.97
2023-05-02T02:48:12.037Z,3.45
2023-05-02T02:50:53.876Z,4.13
2023-05-02T02:53:27.137Z,4.22
2023-05-02T02:56:00.015Z,3.50
2023-05-02T02:58:37.885Z,3.58
2023-05-02T03:01:08.974Z,3.92
2023-05-02T03:03:37.202Z,4.07
2023-05-02T03:06:06.561Z,4.22
2023-05-02T03:08:40.091Z,4.43
2023-05-02T03:11:08.055Z,4.22
2023-05-02T03:13:36.117Z,4.10
2023-05-02T03:16:31.800Z,3.88
2023-05-02T03:18:59.576Z,4.22
2023-05-02T03:21:31.450Z,4.18
2023-05-02T03:24:00.020Z,4.20
2023-05-02T03:26:27.717Z,3.97
2023-05-02T03:28:55.402Z,4.25
2023-05-02T03:31:25.486Z,4.10
2023-05-02T03:33:54.385Z,4.30
2023-05-02T03:36:22.126Z,3.80
2023-05-02T03:38:51.124Z,3.50
2023-05-02T03:41:20.884Z,3.92
2023-05-02T03:43:48.350Z,4.25
2023-05-02T03:46:15.853Z,3.40
2023-05-02T03:48:45.496Z,3.90
2023-05-02T03:51:13.358Z,3.65
2023-05-02T03:53:40.818Z,3.40
2023-05-02T03:56:09.828Z,4.07
2023-05-02T03:58:37.466Z,3.80
2023-05-02T04:01:04.994Z,3.38
2023-05-02T04:03:32.539Z,3.63
2023-05-02T04:06:00.029Z,3.67
2023-05-02T04:08:27.524Z,4.00
2023-05-02T04:10:54.950Z,4.20
2023-05-02T04:13:23.719Z,4.63
2023-05-02T04:15:51.295Z,4.75
2023-05-02T04:18:18.744Z,5.07
2023-05-02T04:20:46.212Z,4.35
2023-05-02T04:23:14.263Z,3.92
2023-05-02T04:25:41.714Z,4.03
2023-05-02T04:28:09.278Z,4.38
2023-05-02T04:30:38.424Z,3.85
2023-05-02T04:33:05.969Z,4.30
2023-05-02T04:35:33.412Z,4.82
2023-05-02T04:38:00.922Z,4.85
2023-05-02T04:40:28.434Z,4.53
2023-05-02T04:42:55.890Z,4.50
2023-05-02T04:45:23.395Z,4.28
2023-05-02T04:47:52.350Z,4.85
2023-05-02T04:50:19.841Z,5.05
2023-05-02T04:52:47.309Z,4.50
2023-05-02T04:55:14.853Z,4.90
2023-05-02T04:57:42.304Z,4.75
2023-05-02T05:00:10.647Z,4.95
2023-05-02T05:02:38.848Z,4.20
2023-05-02T05:05:08.723Z,4.38
2023-05-02T05:07:36.247Z,4.65
2023-05-02T05:10:03.947Z,4.80
2023-05-02T05:12:31.502Z,5.07
2023-05-02T05:14:58.996Z,4.95
2023-05-02T05:17:26.652Z,4.90
2023-05-02T05:19:54.180Z,4.82
2023-05-02T05:22:22.960Z,5.18
2023-05-02T05:24:54.494Z,4.47
2023-05-02T05:27:23.644Z,4.32
2023-05-02T05:29:51.163Z,4.93
2023-05-02T05:32:18.655Z,4.35
2023-05-02T05:34:46.095Z,4.43
2023-05-02T05:37:13.659Z,5.03
2023-05-02T05:39:42.420Z,4.93
2023-05-02T05:42:10.038Z,5.50
2023-05-02T05:44:37.499Z,4.85
2023-05-02T05:47:05.220Z,5.43
2023-05-02T05:49:32.716Z,4.97
2023-05-02T05:52:00.205Z,5.53
2023-05-02T05:54:27.702Z,5.15
2023-05-02T05:56:56.547Z,5.25
2023-05-02T05:59:24.046Z,5.65
2023-05-02T06:01:51.714Z,5.05
2023-05-02T06:04:19.217Z,5.57
2023-05-02T06:06:46.792Z,4.82
2023-05-02T06:09:14.340Z,6.07
2023-05-02T06:11:41.763Z,7.03
2023-05-02T06:14:10.576Z,6.03
2023-05-02T06:16:38.413Z,6.53
2023-05-02T06:19:05.941Z,6.72
2023-05-02T06:21:33.390Z,7.25
2023-05-02T06:24:00.922Z,6.53
2023-05-02T06:26:28.470Z,7.30
2023-05-02T06:28:56.049Z,6.05
2023-05-02T06:31:25.374Z,6.70
2023-05-02T06:33:52.881Z,7.35
2023-05-02T06:36:20.338Z,7.45
2023-05-02T06:38:48.768Z,7.57
2023-05-02T06:41:18.233Z,7.57
2023-05-02T06:43:46.003Z,7.07
2023-05-02T06:46:13.562Z,8.25
2023-05-02T06:48:42.887Z,7.38
2023-05-02T06:51:10.947Z,7.38
2023-05-02T06:53:38.394Z,6.15
2023-05-02T06:56:06.614Z,7.00
2023-05-02T06:58:34.097Z,6.78
2023-05-02T07:01:01.586Z,8.38
2023-05-02T07:03:29.294Z,6.47
2023-05-02T07:05:58.247Z,6.93
2023-05-02T07:08:25.816Z,7.05
2023-05-02T07:10:53.283Z,7.75
2023-05-02T07:13:20.795Z,6.35
2023-05-02T07:15:48.308Z,6.72
2023-05-02T07:18:15.810Z,6.68
2023-05-02T07:20:43.348Z,6.35
2023-05-02T07:23:12.208Z,7.13
2023-05-02T07:25:40.019Z,6.55
2023-05-02T07:28:07.645Z,5.90
2023-05-02T07:30:35.231Z,7.95
2023-05-02T07:33:02.781Z,6.55
2023-05-02T07:35:30.411Z,6.30
2023-05-02T07:37:58.123Z,6.68
2023-05-02T07:40:28.336Z,6.93
2023-05-02T07:42:55.798Z,5.80
2023-05-02T07:45:23.306Z,6.78
2023-05-02T07:47:50.958Z,5.93
2023-05-02T07:50:18.507Z,5.68
2023-05-02T07:52:46.027Z,6.00
2023-05-02T07:55:13.522Z,6.13
2023-05-02T07:57:42.551Z,6.70
2023-05-02T08:00:11.586Z,5.28
2023-05-02T08:02:39.189Z,6.57
2023-05-02T08:05:07.870Z,6.45
2023-05-02T08:07:37.179Z,5.88
2023-05-02T08:10:05.357Z,5.97
2023-05-02T08:12:32.848Z,7.00
2023-05-02T08:15:06.128Z,6.32
2023-05-02T08:17:34.178Z,6.28
2023-05-02T08:20:02.374Z,5.47
2023-05-02T08:22:30.184Z,6.22
2023-05-02T08:24:57.670Z,5.85
2023-05-02T08:27:25.130Z,5.75
2023-05-02T08:29:52.718Z,5.88
2023-05-02T08:32:22.413Z,5.90
2023-05-02T08:34:49.881Z,6.93
2023-05-02T08:37:18.320Z,5.22
2023-05-02T08:39:45.750Z,5.75
2023-05-02T08:42:13.230Z,5.50
2023-05-02T08:44:40.853Z,5.85
2023-05-02T08:47:12.014Z,5.75
2023-05-02T08:49:42.063Z,5.18
2023-05-02T08:52:11.794Z,5.78
2023-05-02T08:54:39.787Z,5.55
2023-05-02T08:57:07.667Z,5.10
2023-05-02T08:59:35.303Z,3.50
2023-05-02T09:02:17.664Z,4.05
2023-05-02T09:04:52.299Z,4.53
2023-05-02T09:09:47.173Z,4.07
2023-05-02T09:12:16.384Z,3.55
2023-05-02T09:14:44.694Z,4.68
2023-05-02T09:17:12.219Z,3.70
2023-05-02T09:19:39.701Z,4.78
2023-05-02T09:22:08.487Z,5.07
2023-05-02T09:24:36.070Z,4.53
2023-05-02T09:27:04.946Z,4.85
2023-05-02T09:29:37.790Z,5.88
2023-05-02T09:32:06.364Z,4.45
2023-05-02T09:34:37.140Z,5.35
2023-05-02T09:37:05.786Z,4.88
2023-05-02T09:39:34.690Z,3.17
2023-05-02T09:42:03.472Z,2.42
2023-05-02T09:44:39.132Z,5.22
2023-05-02T09:47:06.829Z,5.82
2023-05-02T09:49:42.478Z,7.05
2023-05-02T09:52:15.107Z,5.63
2023-05-02T09:54:46.198Z,5.55
2023-05-02T09:57:14.028Z,5.40
2023-05-02T09:59:41.844Z,6.07
2023-05-02T10:02:11.456Z,4.57
2023-05-02T10:04:40.744Z,4.93
2023-05-02T10:07:10.701Z,5.50
2023-05-02T10:09:44.069Z,5.25
2023-05-02T10:12:16.555Z,4.63
2023-05-02T10:14:49.591Z,5.13
2023-05-02T10:17:23.005Z,4.70
2023-05-02T10:19:56.959Z,5.13
2023-05-02T10:22:24.879Z,5.18
2023-05-02T10:24:54.565Z,4.57
2023-05-02T10:27:23.654Z,5.28
2023-05-02T10:29:52.487Z,4.97
2023-05-02T10:32:21.440Z,4.65
2023-05-02T10:34:51.441Z,3.83
2023-05-02T10:37:20.348Z,5.45
2023-05-02T10:39:47.857Z,4.32
2023-05-02T10:42:15.665Z,4.43
2023-05-02T10:44:45.069Z,5.18
2023-05-02T10:47:23.058Z,4.95
2023-05-02T10:49:52.412Z,4.90
2023-05-02T10:52:31.549Z,4.70
2023-05-02T10:55:19.218Z,2.78
2023-05-02T10:58:24.177Z,4.60
2023-05-02T11:00:53.140Z,4.65
2023-05-02T11:03:55.220Z,4.80
2023-05-02T11:06:22.931Z,4.60
2023-05-02T11:08:50.784Z,4.38
2023-05-02T11:11:41.331Z,5.15
2023-05-02T11:14:09.618Z,4.97
2023-05-02T11:17:10.846Z,5.50
2023-05-02T11:20:25.597Z,4.60
2023-05-02T11:22:54.000Z,4.22
2023-05-02T11:28:07.241Z,4.32
2023-05-02T11:30:43.730Z,5.60
2023-05-02T11:33:21.701Z,5.18
2023-05-02T11:35:49.859Z,3.78
2023-05-02T11:38:20.557Z,4.93
2023-05-02T11:40:55.951Z,4.90
2023-05-02T11:43:25.128Z,4.90
2023-05-02T11:45:53.251Z,4.00
2023-05-02T11:48:23.962Z,6.00
2023-05-02T11:50:53.138Z,4.35
2023-05-02T11:53:23.431Z,2.33
2023-05-02T11:55:52.060Z,4.93
2023-05-02T11:58:21.263Z,4.63
2023-05-02T12:00:49.826Z,4.85
2023-05-02T12:03:28.085Z,4.57
2023-05-02T12:05:56.026Z,3.78
2023-05-02T12:08:26.289Z,2.80
2023-05-02T12:10:55.337Z,2.05
2023-05-02T12:13:24.970Z,1.13
2023-05-02T12:15:53.719Z,2.10
2023-05-02T12:18:24.324Z,1.90
2023-05-02T12:20:54.513Z,1.90
2023-05-02T12:23:24.430Z,2.22
2023-05-02T12:25:51.988Z,2.03
2023-05-02T12:28:20.657Z,2.22
2023-05-02T12:30:49.647Z,2.30
2023-05-02T12:33:17.837Z,2.67
2023-05-02T12:35:47.317Z,2.78
2023-05-02T12:38:18.639Z,3.35
2023-05-02T12:40:51.000Z,2.70
2023-05-02T12:43:19.238Z,3.50
2023-05-02T12:45:48.460Z,4.82
2023-05-02T12:48:24.378Z,4.30
2023-05-02T12:50:52.361Z,4.18
2023-05-02T12:53:38.664Z,4.78
2023-05-02T12:56:07.267Z,4.97
2023-05-02T12:58:42.451Z,4.10
2023-05-02T13:01:10.453Z,4.20
2023-05-02T13:03:38.697Z,4.53
2023-05-02T13:06:06.936Z,4.97
2023-05-02T13:08:36.615Z,4.45
2023-05-02T13:11:04.968Z,4.72
2023-05-02T13:13:32.565Z,4.20
2023-05-02T13:16:00.118Z,5.55
2023-05-02T13:18:28.377Z,5.00
2023-05-02T13:20:55.965Z,4.63
2023-05-02T13:23:23.496Z,4.22
2023-05-02T13:25:52.271Z,5.13
2023-05-02T13:28:19.700Z,5.68
2023-05-02T13:30:47.219Z,5.13
2023-05-02T13:33:14.746Z,4.70
2023-05-02T13:35:42.245Z,3.72
2023-05-02T13:38:09.730Z,4.47
2023-05-02T13:40:37.409Z,5.13
2023-05-02T13:43:06.380Z,4.80
2023-05-02T13:45:34.035Z,4.00
2023-05-02T13:48:01.497Z,3.58
2023-05-02T13:50:29.044Z,3.67
2023-05-02T13:52:56.484Z,3.70
2023-05-02T13:55:24.190Z,3.13
2023-05-02T13:57:51.764Z,4.10
2023-05-02T14:00:20.971Z,2.80
2023-05-02T14:02:49.089Z,4.30
2023-05-02T14:05:16.630Z,3.25
2023-05-02T14:07:44.108Z,3.50
2023-05-02T14:10:11.767Z,3.85
2023-05-02T14:12:39.208Z,2.65
2023-05-02T14:15:07.827Z,2.47
2023-05-02T14:17:36.647Z,2.63
2023-05-02T14:20:04.622Z,2.58
2023-05-02T14:22:32.314Z,2.45
2023-05-02T14:24:59.780Z,2.25
2023-05-02T14:27:27.608Z,2.08
2023-05-02T14:29:55.182Z,1.58
2023-05-02T14:32:22.801Z,1.65
2023-05-02T14:34:51.663Z,1.45
2023-05-02T14:37:19.153Z,1.63
2023-05-02T14:39:58.116Z,1.40
2023-05-02T14:42:25.812Z,1.70
2023-05-02T14:44:53.450Z,1.38
2023-05-02T14:47:20.881Z,1.60
2023-05-02T14:49:48.449Z,1.60
2023-05-02T14:52:17.222Z,1.52
2023-05-02T14:54:44.710Z,1.70
2023-05-02T14:57:12.196Z,1.67
2023-05-02T14:59:40.171Z,1.88
2023-05-02T15:02:08.289Z,2.00
2023-05-02T15:04:35.973Z,1.40
2023-05-02T15:07:03.695Z,2.40
2023-05-02T15:09:32.542Z,2.20
2023-05-02T15:11:59.970Z,2.08
2023-05-02T15:14:27.476Z,2.22
2023-05-02T15:16:55.121Z,1.83
2023-05-02T15:19:23.917Z,1.80
2023-05-02T15:21:53.015Z,2.40
2023-05-02T15:24:20.586Z,2.33
2023-05-02T15:26:49.380Z,1.83
2023-05-02T15:29:17.051Z,1.27
2023-05-02T15:31:44.734Z,2.28
2023-05-02T15:34:12.659Z,1.55
2023-05-02T15:36:40.598Z,2.00
2023-05-02T15:39:08.486Z,2.25
2023-05-02T15:41:36.054Z,2.50
2023-05-02T15:44:05.335Z,2.60
2023-05-02T15:46:32.782Z,2.30
2023-05-02T15:49:00.303Z,2.50
2023-05-02T15:51:27.894Z,3.45
2023-05-02T15:53:55.827Z,2.38
2023-05-02T15:56:23.314Z,2.45
2023-05-02T15:58:50.841Z,2.13
2023-05-02T16:01:20.950Z,2.58
2023-05-02T16:03:48.556Z,2.60
2023-05-02T16:06:17.442Z,2.25
2023-05-02T16:08:45.016Z,2.15
2023-05-02T16:11:12.459Z,2.80
2023-05-02T16:13:40.351Z,2.45
2023-05-02T16:16:08.506Z,2.72
2023-05-02T16:18:37.368Z,2.63
2023-05-02T16:21:05.370Z,2.20
2023-05-02T16:23:32.922Z,2.42
2023-05-02T16:26:01.521Z,2.90
2023-05-02T16:28:29.288Z,2.92
2023-05-02T16:30:57.013Z,2.90
2023-05-02T16:33:24.577Z,3.78
2023-05-02T16:36:02.661Z,2.88
2023-05-02T16:38:30.382Z,2.97
2023-05-02T16:40:58.305Z,3.45
2023-05-02T16:43:25.937Z,3.10
2023-05-02T16:46:00.750Z,2.38
2023-05-02T16:48:28.380Z,2.83
2023-05-02T16:50:55.890Z,3.08
2023-05-02T16:53:25.050Z,3.03
2023-05-02T16:55:52.523Z,2.78
2023-05-02T16:58:20.212Z,3.10
2023-05-02T17:00:47.670Z,3.20
2023-05-02T17:03:15.255Z,3.20
2023-05-02T17:05:42.815Z,4.10
2023-05-02T17:08:11.032Z,2.65
2023-05-02T17:10:39.907Z,2.88
2023-05-02T17:13:07.590Z,2.40
2023-05-02T17:15:38.358Z,2.55
2023-05-02T17:18:06.034Z,2.63
2023-05-02T17:20:33.732Z,3.20
2023-05-02T17:23:02.132Z,2.92
2023-05-02T17:27:58.513Z,2.30
2023-05-02T17:30:26.079Z,1.83
2023-05-02T17:32:53.636Z,2.00
2023-05-02T17:35:21.254Z,1.95
2023-05-02T17:37:48.739Z,2.42
2023-05-02T17:40:16.803Z,2.53
2023-05-02T17:42:45.381Z,2.22
2023-05-02T17:45:14.915Z,3.63
2023-05-02T17:47:42.395Z,3.45
2023-05-02T17:50:10.560Z,2.60
2023-05-02T17:52:38.690Z,2.78
2023-05-02T17:55:08.298Z,2.80
2023-05-02T17:57:46.219Z,3.03
2023-05-02T18:00:16.535Z,2.63
2023-05-02T18:02:44.294Z,2.55
2023-05-02T18:05:12.326Z,2.95
2023-05-02T18:07:39.803Z,2.53
2023-05-02T18:10:08.363Z,2.58
2023-05-02T18:12:36.018Z,2.90
2023-05-02T18:15:05.108Z,2.85
2023-05-02T18:17:34.455Z,2.53
2023-05-02T18:20:04.223Z,3.25
2023-05-02T18:22:32.246Z,2.70
2023-05-02T18:24:59.822Z,2.58
2023-05-02T18:27:27.335Z,2.72
2023-05-02T18:29:55.324Z,2.47
2023-05-02T18:32:22.806Z,1.98
2023-05-02T18:34:51.691Z,3.00
2023-05-02T18:37:19.152Z,2.28
2023-05-02T18:39:46.597Z,3.20
2023-05-02T18:42:14.699Z,2.53
2023-05-02T18:44:42.144Z,2.35
2023-05-02T18:47:09.728Z,2.88
2023-05-02T18:49:37.186Z,3.20
2023-05-02T18:52:06.168Z,2.50
2023-05-02T18:54:33.927Z,3.42
2023-05-02T18:57:01.955Z,2.60
2023-05-02T18:59:29.656Z,3.03
2023-05-02T19:01:58.163Z,3.10
2023-05-02T19:04:26.014Z,2.47
2023-05-02T19:06:53.545Z,2.85
2023-05-02T19:09:22.419Z,2.90
2023-05-02T19:11:49.890Z,3.05
2023-05-02T19:14:17.386Z,2.97
2023-05-02T19:16:44.867Z,3.38
2023-05-02T19:19:12.336Z,3.45
2023-05-02T19:21:39.869Z,2.97
2023-05-02T19:24:07.631Z,2.70
2023-05-02T19:26:36.645Z,3.08
2023-05-02T19:29:04.107Z,2.75
2023-05-02T19:31:31.646Z,3.03
2023-05-02T19:34:00.062Z,2.70
2023-05-02T19:36:28.270Z,3.65
2023-05-02T19:38:57.923Z,3.00
2023-05-02T19:41:25.697Z,3.13
2023-05-02T19:43:55.549Z,3.38
2023-05-02T19:46:23.166Z,3.67
2023-05-02T19:48:50.675Z,4.20
2023-05-02T19:51:22.042Z,3.65
2023-05-02T19:53:49.562Z,3.88
2023-05-02T19:56:18.307Z,4.32
2023-05-02T19:58:45.794Z,4.30
2023-05-02T20:01:14.847Z,3.67
2023-05-02T20:03:42.626Z,4.82
2023-05-02T20:06:10.304Z,3.55
2023-05-02T20:08:37.859Z,2.80
2023-05-02T20:11:05.423Z,2.67
2023-05-02T20:13:32.927Z,2.05
2023-05-02T20:16:00.592Z,2.45
2023-05-02T20:18:29.463Z,2.33
2023-05-02T20:20:56.911Z,2.35
2023-05-02T20:23:24.377Z,2.47
2023-05-02T20:25:51.933Z,2.90
2023-05-02T20:28:19.411Z,2.40
2023-05-02T20:30:46.870Z,2.22
2023-05-02T20:33:16.716Z,2.13
2023-05-02T20:35:46.573Z,2.00
2023-05-02T20:38:14.718Z,1.80
2023-05-02T20:40:42.489Z,2.03
2023-05-02T20:43:09.958Z,1.95
2023-05-02T20:45:38.723Z,1.92
2023-05-02T20:48:06.848Z,2.25
2023-05-02T20:50:34.361Z,2.00
2023-05-02T20:53:04.425Z,1.90
2023-05-02T20:55:31.972Z,1.83
2023-05-02T20:57:59.505Z,1.75
2023-05-02T21:00:27.560Z,1.73
2023-05-02T21:02:55.041Z,2.10
2023-05-02T21:05:22.553Z,1.85
2023-05-02T21:07:49.992Z,1.60
2023-05-02T21:10:18.970Z,1.88
2023-05-02T21:12:46.429Z,1.83
2023-05-02T21:15:14.875Z,1.90
2023-05-02T21:17:42.474Z,2.00
2023-05-02T21:20:10.964Z,2.10
2023-05-02T21:25:06.653Z,2.17
2023-05-02T21:27:35.543Z,2.17
2023-05-02T21:30:03.325Z,1.92
2023-05-02T21:32:31.046Z,6.45
2023-05-02T21:34:58.545Z,2.35
2023-05-02T21:37:25.985Z,2.70
2023-05-02T21:39:53.475Z,2.67
2023-05-02T21:42:20.982Z,1.88
2023-05-02T21:44:50.413Z,2.58
2023-05-02T21:47:17.861Z,2.60
2023-05-02T21:49:45.440Z,2.75
2023-05-02T21:52:12.903Z,2.85
2023-05-02T21:54:40.535Z,2.58
2023-05-02T21:57:07.980Z,2.72
2023-05-02T21:59:35.771Z,2.20
2023-05-02T22:02:04.666Z,2.65
2023-05-02T22:04:32.100Z,2.90
2023-05-02T22:06:59.680Z,2.38
2023-05-02T22:09:27.106Z,2.10
2023-05-02T22:11:54.545Z,2.50
2023-05-02T22:14:25.422Z,3.63
2023-05-02T22:16:58.441Z,2.78
2023-05-02T22:19:27.379Z,2.63
2023-05-02T22:21:57.327Z,2.83
2023-05-02T22:24:24.868Z,2.78
2023-05-02T22:26:52.324Z,2.80
2023-05-02T22:29:19.784Z,2.50
2023-05-02T22:31:47.340Z,3.05
2023-05-02T22:34:14.827Z,2.58
2023-05-02T22:36:43.659Z,3.20
2023-05-02T22:39:14.433Z,3.38
2023-05-02T22:41:42.228Z,3.70
2023-05-02T22:44:10.319Z,2.83
2023-05-02T22:46:38.880Z,3.15
2023-05-02T22:49:09.442Z,3.63
2023-05-02T22:51:37.759Z,3.17
2023-05-02T22:54:07.912Z,3.25
2023-05-02T22:56:35.785Z,3.33
2023-05-02T22:59:03.310Z,3.50
2023-05-02T23:01:30.830Z,3.35
2023-05-02T23:03:58.370Z,3.40
2023-05-02T23:06:28.368Z,3.50
2023-05-02T23:08:55.826Z,3.60
2023-05-02T23:11:25.845Z,3.55
2023-05-02T23:13:53.283Z,4.40
2023-05-02T23:16:20.812Z,4.25
2023-05-02T23:18:48.480Z,3.25
2023-05-02T23:21:16.368Z,3.35
2023-05-02T23:23:44.447Z,4.20
2023-05-02T23:26:11.926Z,3.40
2023-05-02T23:28:40.879Z,3.45
2023-05-02T23:31:08.844Z,3.65
2023-05-02T23:33:37.162Z,4.10
2023-05-02T23:36:06.752Z,3.83
2023-05-02T23:38:36.974Z,4.95
2023-05-02T23:41:04.794Z,2.22
2023-05-02T23:43:32.409Z,4.15
2023-05-02T23:46:02.023Z,3.78
2023-05-02T23:48:29.456Z,3.75
2023-05-02T23:50:56.922Z,3.75
2023-05-02T23:53:24.377Z,3.75
2023-05-02T23:55:54.587Z,3.40
2023-05-02T23:58:22.028Z,3.13
